createdAt,value
2017-10-27T00:00:07.805Z,21.63
2017-10-27T00:02:36.774Z,25.03
2017-10-27T00:05:06.447Z,29.63
2017-10-27T00:07:34.606Z,27.40
2017-10-27T00:10:02.775Z,26.17
2017-10-27T00:12:30.955Z,26.17
2017-10-27T00:14:59.097Z,28.63
2017-10-27T00:17:28.740Z,35.10
2017-10-27T00:19:56.966Z,34.90
2017-10-27T00:22:25.897Z,31.13
2017-10-27T00:24:54.045Z,37.70
2017-10-27T00:27:22.984Z,30.80
2017-10-27T00:29:51.201Z,42.07
2017-10-27T00:32:19.669Z,37.13
2017-10-27T00:34:47.822Z,37.80
2017-10-27T00:37:15.989Z,41.47
2017-10-27T00:39:44.135Z,38.77
2017-10-27T00:42:12.363Z,40.27
2017-10-27T00:44:41.305Z,43.50
2017-10-27T00:47:09.436Z,44.40
2017-10-27T00:49:38.371Z,42.40
2017-10-27T00:52:06.520Z,38.83
2017-10-27T00:54:34.716Z,40.17
2017-10-27T00:57:02.849Z,38.43
2017-10-27T00:59:31.769Z,40.10
2017-10-27T01:02:00.149Z,41.73
2017-10-27T01:04:28.307Z,42.67
2017-10-27T01:06:56.601Z,36.90
2017-10-27T01:09:24.770Z,43.23
2017-10-27T01:11:53.047Z,46.93
2017-10-27T01:14:21.224Z,43.10
2017-10-27T01:16:49.500Z,42.27
2017-10-27T01:19:17.921Z,40.57
2017-10-27T01:21:46.064Z,46.60
2017-10-27T01:24:14.244Z,42.00
2017-10-27T01:26:42.411Z,48.37
2017-10-27T01:29:11.356Z,43.40
2017-10-27T01:31:39.580Z,43.90
2017-10-27T01:34:08.537Z,45.50
2017-10-27T01:36:36.711Z,50.03
2017-10-27T01:39:04.885Z,50.87
2017-10-27T01:41:33.108Z,48.43
2017-10-27T01:44:01.321Z,47.13
2017-10-27T01:46:29.449Z,40.43
2017-10-27T01:48:57.602Z,41.90
2017-10-27T01:51:25.736Z,41.63
2017-10-27T01:53:53.931Z,48.27
2017-10-27T01:56:22.152Z,46.03
2017-10-27T01:58:51.045Z,43.13
2017-10-27T02:01:20.046Z,57.10
2017-10-27T02:03:48.943Z,56.40
2017-10-27T02:06:17.848Z,63.83
2017-10-27T02:08:46.250Z,55.27
2017-10-27T02:11:14.385Z,53.63
2017-10-27T02:13:42.566Z,52.33
2017-10-27T02:16:11.522Z,51.00
2017-10-27T02:18:39.706Z,44.37
2017-10-27T02:21:07.935Z,42.10
2017-10-27T02:23:36.135Z,43.87
2017-10-27T02:26:04.432Z,53.47
2017-10-27T02:28:32.595Z,41.60
2017-10-27T02:31:00.785Z,45.70
2017-10-27T02:33:29.779Z,39.07
2017-10-27T02:35:58.740Z,44.67
2017-10-27T02:38:26.916Z,47.00
2017-10-27T02:40:55.048Z,46.70
2017-10-27T02:43:23.230Z,41.87
2017-10-27T02:45:51.368Z,48.10
2017-10-27T02:48:20.325Z,42.07
2017-10-27T02:50:48.557Z,43.90
2017-10-27T02:53:16.697Z,46.20
2017-10-27T02:55:45.653Z,43.13
2017-10-27T02:58:13.837Z,44.50
2017-10-27T03:00:42.807Z,40.17
2017-10-27T03:03:10.946Z,39.63
2017-10-27T03:05:39.216Z,33.23
2017-10-27T03:08:08.221Z,40.57
2017-10-27T03:10:36.376Z,37.70
2017-10-27T03:13:04.540Z,33.13
2017-10-27T03:15:33.431Z,26.87
2017-10-27T03:18:02.360Z,34.33
2017-10-27T03:20:30.523Z,38.40
2017-10-27T03:22:58.708Z,36.70
2017-10-27T03:25:27.046Z,45.47
2017-10-27T03:27:55.968Z,45.77
2017-10-27T03:30:24.146Z,41.63
2017-10-27T03:32:52.427Z,49.00
2017-10-27T03:35:20.599Z,44.87
2017-10-27T03:37:48.870Z,45.57
2017-10-27T03:40:17.014Z,50.23
2017-10-27T03:42:45.170Z,49.63
2017-10-27T03:45:14.107Z,50.20
2017-10-27T03:47:42.491Z,50.50
2017-10-27T03:50:10.896Z,57.43
2017-10-27T03:52:39.443Z,60.20
2017-10-27T03:55:07.640Z,49.63
2017-10-27T03:57:35.980Z,45.80
2017-10-27T04:00:04.120Z,56.30
2017-10-27T04:02:33.040Z,55.93
2017-10-27T04:05:01.942Z,56.33
2017-10-27T04:07:31.353Z,60.30
2017-10-27T04:09:59.484Z,56.20
2017-10-27T04:12:28.396Z,58.10
2017-10-27T04:14:56.627Z,59.37
2017-10-27T04:17:24.790Z,59.10
2017-10-27T04:19:52.982Z,55.83
2017-10-27T04:22:21.131Z,49.90
2017-10-27T04:24:49.504Z,51.00
2017-10-27T04:27:17.642Z,48.90
2017-10-27T04:29:45.928Z,52.70
2017-10-27T04:32:14.122Z,53.27
2017-10-27T04:34:42.278Z,43.03
2017-10-27T04:37:10.440Z,48.20
2017-10-27T04:39:38.674Z,52.97
2017-10-27T04:42:07.604Z,55.33
2017-10-27T04:44:35.808Z,54.80
2017-10-27T04:47:04.166Z,48.83
2017-10-27T04:49:32.357Z,57.60
2017-10-27T04:52:01.160Z,62.23
2017-10-27T04:54:29.322Z,63.80
2017-10-27T04:56:57.660Z,55.87
2017-10-27T04:59:25.800Z,55.30
2017-10-27T05:01:54.729Z,55.67
2017-10-27T05:04:23.601Z,52.70
2017-10-27T05:06:52.704Z,58.17
2017-10-27T05:09:22.063Z,60.87
2017-10-27T05:11:50.213Z,56.33
2017-10-27T05:14:18.459Z,53.00
2017-10-27T05:16:53.219Z,50.57
2017-10-27T05:19:27.110Z,50.60
2017-10-27T05:22:01.669Z,54.10
2017-10-27T05:24:29.823Z,49.53
2017-10-27T05:26:57.994Z,52.17
2017-10-27T05:29:26.393Z,50.00
2017-10-27T05:31:54.553Z,48.57
2017-10-27T05:34:22.704Z,53.67
2017-10-27T05:36:50.886Z,52.33
2017-10-27T05:39:19.030Z,50.93
2017-10-27T05:41:47.197Z,69.10
2017-10-27T05:44:16.127Z,75.07
2017-10-27T05:46:44.289Z,78.73
2017-10-27T05:49:12.496Z,54.20
2017-10-27T05:51:40.648Z,46.03
2017-10-27T05:54:08.793Z,47.53
2017-10-27T05:56:36.944Z,55.23
2017-10-27T05:59:05.122Z,53.67
2017-10-27T06:01:33.337Z,53.47
2017-10-27T06:04:01.483Z,42.20
2017-10-27T06:06:29.631Z,55.20
2017-10-27T06:08:57.799Z,50.20
2017-10-27T06:11:26.738Z,44.93
2017-10-27T06:13:54.884Z,48.37
2017-10-27T06:16:23.061Z,44.43
2017-10-27T06:18:51.244Z,38.60
2017-10-27T06:21:19.377Z,36.33
2017-10-27T06:23:48.347Z,36.80
2017-10-27T06:26:16.685Z,26.00
2017-10-27T06:28:44.809Z,30.17
2017-10-27T06:31:13.796Z,33.33
2017-10-27T06:33:41.933Z,28.27
2017-10-27T06:36:10.079Z,27.03
2017-10-27T06:38:38.987Z,21.00
2017-10-27T06:41:07.354Z,23.60
2017-10-27T06:43:36.260Z,16.67
2017-10-27T06:46:05.187Z,22.93
2017-10-27T06:48:33.328Z,19.90
2017-10-27T06:51:01.505Z,18.37
2017-10-27T06:53:29.656Z,17.37
2017-10-27T06:55:57.861Z,19.03
2017-10-27T06:58:26.141Z,19.70
2017-10-27T07:00:55.435Z,24.37
2017-10-27T07:03:23.581Z,20.97
2017-10-27T07:05:51.754Z,14.20
2017-10-27T07:08:19.926Z,10.70
2017-10-27T07:10:48.117Z,16.40
2017-10-27T07:13:16.241Z,12.53
2017-10-27T07:15:44.366Z,13.03
2017-10-27T07:18:12.533Z,9.37
2017-10-27T07:20:40.701Z,12.73
2017-10-27T07:23:08.821Z,13.47
2017-10-27T07:25:37.761Z,13.80
2017-10-27T07:28:06.766Z,12.60
2017-10-27T07:30:34.903Z,9.10
2017-10-27T07:33:03.065Z,12.20
2017-10-27T07:35:31.207Z,10.93
2017-10-27T07:37:59.347Z,11.00
2017-10-27T07:40:27.536Z,13.00
2017-10-27T07:42:55.768Z,12.43
2017-10-27T07:45:23.936Z,9.87
2017-10-27T07:47:52.080Z,9.40
2017-10-27T07:50:21.066Z,9.53
2017-10-27T07:52:49.193Z,5.50
2017-10-27T07:55:17.352Z,9.30
2017-10-27T07:57:46.317Z,9.80
2017-10-27T08:00:14.446Z,7.43
2017-10-27T08:02:42.604Z,8.80
2017-10-27T08:05:10.847Z,7.17
2017-10-27T08:07:39.979Z,7.10
2017-10-27T08:10:08.115Z,7.60
2017-10-27T08:12:37.042Z,7.87
2017-10-27T08:15:05.187Z,10.43
2017-10-27T08:17:33.311Z,7.40
2017-10-27T08:20:01.504Z,9.97
2017-10-27T08:22:29.724Z,13.23
2017-10-27T08:24:57.990Z,8.73
2017-10-27T08:27:26.161Z,12.97
2017-10-27T08:29:54.400Z,9.20
2017-10-27T08:32:22.666Z,7.67
2017-10-27T08:34:50.843Z,9.60
2017-10-27T08:37:18.979Z,6.87
2017-10-27T08:39:47.248Z,10.80
2017-10-27T08:42:27.272Z,4.70
2017-10-27T08:44:55.454Z,6.83
2017-10-27T08:47:24.562Z,5.90
2017-10-27T08:49:52.680Z,7.70
2017-10-27T08:52:20.852Z,6.57
2017-10-27T08:54:49.120Z,8.57
2017-10-27T08:57:17.451Z,7.03
2017-10-27T08:59:45.599Z,8.10
2017-10-27T09:02:14.538Z,7.67
2017-10-27T09:04:42.819Z,8.10
2017-10-27T09:07:10.979Z,9.17
2017-10-27T09:09:39.120Z,4.90
2017-10-27T09:12:08.162Z,7.23
2017-10-27T09:14:36.302Z,5.13
2017-10-27T09:17:04.461Z,6.17
2017-10-27T09:19:33.341Z,6.53
2017-10-27T09:22:02.369Z,6.80
2017-10-27T09:24:31.418Z,6.93
2017-10-27T09:27:00.336Z,6.27
2017-10-27T09:29:28.457Z,4.60
2017-10-27T09:31:56.687Z,7.13
2017-10-27T09:34:24.854Z,7.73
2017-10-27T09:36:53.042Z,7.03
2017-10-27T09:39:21.400Z,5.50
2017-10-27T09:41:49.521Z,6.73
2017-10-27T09:44:19.172Z,6.30
2017-10-27T09:46:47.317Z,8.97
2017-10-27T09:49:15.811Z,7.97
2017-10-27T09:51:43.950Z,5.50
2017-10-27T09:54:12.101Z,8.80
2017-10-27T09:56:40.524Z,5.87
2017-10-27T09:59:08.662Z,13.53
2017-10-27T10:01:36.912Z,6.80
2017-10-27T10:04:05.866Z,8.53
2017-10-27T10:06:34.008Z,7.93
2017-10-27T10:09:02.194Z,9.07
2017-10-27T10:11:30.369Z,7.20
2017-10-27T10:13:59.318Z,10.67
2017-10-27T10:16:27.545Z,8.37
2017-10-27T10:18:55.681Z,5.17
2017-10-27T10:21:23.891Z,11.20
2017-10-27T10:23:52.809Z,7.90
2017-10-27T10:26:22.230Z,6.10
2017-10-27T10:28:51.165Z,7.20
2017-10-27T10:31:19.344Z,6.17
2017-10-27T10:33:47.486Z,7.93
2017-10-27T10:36:15.677Z,11.00
2017-10-27T10:38:43.840Z,12.27
2017-10-27T10:41:11.991Z,3.80
2017-10-27T10:43:40.158Z,8.07
2017-10-27T10:46:11.130Z,8.67
2017-10-27T10:48:48.148Z,5.70
2017-10-27T10:51:16.387Z,9.77
2017-10-27T10:53:44.657Z,7.13
2017-10-27T10:56:12.921Z,6.50
2017-10-27T10:58:41.069Z,6.10
2017-10-27T11:01:10.021Z,6.20
2017-10-27T11:03:38.199Z,4.97
2017-10-27T11:06:06.350Z,6.97
2017-10-27T11:08:34.528Z,5.70
2017-10-27T11:11:02.710Z,9.40
2017-10-27T11:13:30.892Z,10.00
2017-10-27T11:15:59.045Z,11.23
2017-10-27T11:18:27.237Z,11.53
2017-10-27T11:20:55.430Z,7.73
2017-10-27T11:23:23.626Z,10.00
2017-10-27T11:25:51.756Z,7.63
2017-10-27T11:28:20.189Z,8.17
2017-10-27T11:30:48.363Z,8.63
2017-10-27T11:33:16.497Z,7.43
2017-10-27T11:35:44.702Z,5.33
2017-10-27T11:38:12.845Z,13.53
2017-10-27T11:40:41.013Z,11.87
2017-10-27T11:43:09.213Z,14.43
2017-10-27T11:45:37.342Z,5.33
2017-10-27T11:48:05.988Z,8.30
2017-10-27T11:50:34.972Z,8.00
2017-10-27T11:53:03.202Z,13.13
2017-10-27T11:55:32.086Z,7.23
2017-10-27T11:58:01.247Z,15.30
2017-10-27T12:00:29.371Z,7.23
2017-10-27T12:02:57.520Z,11.33
2017-10-27T12:05:26.455Z,7.17
2017-10-27T12:07:55.431Z,11.93
2017-10-27T12:10:23.726Z,5.33
2017-10-27T12:12:51.884Z,8.83
2017-10-27T12:15:20.050Z,4.03
2017-10-27T12:17:48.229Z,4.00
2017-10-27T12:20:16.411Z,4.00
2017-10-27T12:22:44.629Z,3.97
2017-10-27T12:25:13.599Z,4.50
2017-10-27T12:27:41.799Z,10.23
2017-10-27T12:30:09.943Z,6.33
2017-10-27T12:32:38.142Z,8.73
2017-10-27T12:35:07.091Z,8.00
2017-10-27T12:37:36.069Z,11.27
2017-10-27T12:40:04.228Z,9.07
2017-10-27T12:42:32.443Z,5.53
2017-10-27T12:45:00.649Z,4.40
2017-10-27T12:50:03.164Z,4.90
2017-10-27T12:52:32.197Z,5.83
2017-10-27T12:55:00.382Z,3.90
2017-10-27T12:57:29.354Z,6.53
2017-10-27T12:59:57.641Z,3.30
2017-10-27T13:02:25.758Z,3.37
2017-10-27T13:04:54.061Z,3.80
2017-10-27T13:07:22.202Z,7.40
2017-10-27T13:09:51.325Z,11.17
2017-10-27T13:12:19.588Z,5.00
2017-10-27T13:14:47.866Z,4.97
2017-10-27T13:17:16.159Z,5.80
2017-10-27T13:19:44.325Z,3.90
2017-10-27T13:22:12.534Z,7.83
2017-10-27T13:24:40.851Z,3.20
2017-10-27T13:27:09.000Z,7.43
2017-10-27T13:29:37.222Z,5.50
2017-10-27T13:32:05.377Z,6.23
2017-10-27T13:34:33.510Z,3.47
2017-10-27T13:37:01.738Z,6.77
2017-10-27T13:39:29.894Z,6.33
2017-10-27T13:41:58.832Z,7.33
2017-10-27T13:44:26.979Z,6.00
2017-10-27T13:46:55.122Z,4.10
2017-10-27T13:49:24.067Z,5.10
2017-10-27T13:51:52.250Z,4.33
2017-10-27T13:54:20.410Z,7.10
2017-10-27T13:56:48.549Z,8.80
2017-10-27T13:59:16.678Z,5.03
2017-10-27T14:01:44.844Z,7.63
2017-10-27T14:04:12.992Z,6.57
2017-10-27T14:06:41.133Z,11.23
2017-10-27T14:09:09.283Z,8.10
2017-10-27T14:11:37.502Z,7.57
2017-10-27T14:14:05.715Z,7.80
2017-10-27T14:16:33.857Z,5.80
2017-10-27T14:19:02.011Z,8.23
2017-10-27T14:21:30.148Z,4.30
2017-10-27T14:23:59.097Z,7.43
2017-10-27T14:26:27.480Z,6.43
2017-10-27T14:28:55.609Z,10.00
2017-10-27T14:31:23.805Z,9.60
2017-10-27T14:33:51.950Z,5.90
2017-10-27T14:36:20.202Z,6.50
2017-10-27T14:38:49.157Z,4.03
2017-10-27T14:41:17.349Z,9.20
2017-10-27T14:43:45.775Z,6.03
2017-10-27T14:46:13.927Z,9.40
2017-10-27T14:48:42.970Z,8.20
2017-10-27T14:51:11.106Z,8.13
2017-10-27T14:53:40.081Z,5.47
2017-10-27T14:56:08.992Z,6.03
2017-10-27T14:58:37.148Z,6.37
2017-10-27T15:01:05.394Z,7.13
2017-10-27T15:03:33.667Z,8.40
2017-10-27T15:06:01.799Z,7.53
2017-10-27T15:08:29.921Z,8.83
2017-10-27T15:10:58.849Z,7.10
2017-10-27T15:13:26.999Z,8.30
2017-10-27T15:15:55.927Z,7.70
2017-10-27T15:18:24.178Z,8.33
2017-10-27T15:20:52.429Z,8.57
2017-10-27T15:23:21.344Z,11.67
2017-10-27T15:25:49.549Z,7.70
2017-10-27T15:28:17.724Z,9.77
2017-10-27T15:30:45.895Z,7.90
2017-10-27T15:33:14.087Z,7.87
2017-10-27T15:35:42.208Z,8.67
2017-10-27T15:38:10.426Z,5.33
2017-10-27T15:40:38.550Z,7.57
2017-10-27T15:43:06.717Z,7.33
2017-10-27T15:45:35.771Z,6.93
2017-10-27T15:48:03.907Z,11.20
2017-10-27T15:50:32.065Z,6.97
2017-10-27T15:53:00.288Z,9.00
2017-10-27T15:55:28.544Z,14.00
2017-10-27T15:57:57.204Z,10.03
2017-10-27T16:00:26.121Z,6.70
2017-10-27T16:02:54.320Z,8.30
2017-10-27T16:05:22.466Z,7.33
2017-10-27T16:07:50.706Z,8.57
2017-10-27T16:10:19.622Z,8.27
2017-10-27T16:12:47.803Z,7.57
2017-10-27T16:15:15.983Z,9.67
2017-10-27T16:17:44.164Z,8.37
2017-10-27T16:20:12.537Z,10.93
2017-10-27T16:22:40.670Z,9.17
2017-10-27T16:25:08.826Z,8.00
2017-10-27T16:27:37.767Z,6.40
2017-10-27T16:30:06.042Z,4.07
2017-10-27T16:32:34.194Z,6.90
2017-10-27T16:35:02.326Z,9.57
2017-10-27T16:37:31.328Z,13.53
2017-10-27T16:39:59.656Z,6.60
2017-10-27T16:42:27.871Z,7.80
2017-10-27T16:44:56.164Z,8.90
2017-10-27T16:47:25.582Z,9.03
2017-10-27T16:49:53.809Z,10.47
2017-10-27T16:52:22.694Z,5.80
2017-10-27T16:54:50.867Z,8.70
2017-10-27T16:57:19.124Z,6.73
2017-10-27T16:59:47.284Z,5.50
2017-10-27T17:02:15.476Z,7.67
2017-10-27T17:04:43.819Z,6.57
2017-10-27T17:07:12.723Z,6.70
2017-10-27T17:09:40.875Z,7.47
2017-10-27T17:12:09.048Z,6.07
2017-10-27T17:14:37.199Z,4.40
2017-10-27T17:17:05.371Z,5.73
2017-10-27T17:19:33.630Z,7.60
2017-10-27T17:22:02.528Z,9.33
2017-10-27T17:24:30.653Z,15.70
2017-10-27T17:27:03.304Z,4.50
2017-10-27T17:29:32.456Z,5.70
2017-10-27T17:32:00.669Z,9.07
2017-10-27T17:34:28.809Z,10.13
2017-10-27T17:36:57.010Z,7.90
2017-10-27T17:39:25.228Z,10.77
2017-10-27T17:41:53.398Z,8.97
2017-10-27T17:44:21.569Z,7.20
2017-10-27T17:46:49.752Z,8.97
2017-10-27T17:49:19.599Z,10.13
2017-10-27T17:51:47.770Z,6.00
2017-10-27T17:54:15.963Z,18.40
2017-10-27T17:56:44.813Z,11.03
2017-10-27T17:59:12.989Z,18.40
2017-10-27T18:01:41.339Z,17.77
2017-10-27T18:04:10.491Z,16.10
2017-10-27T18:06:38.743Z,13.10
2017-10-27T18:09:06.926Z,10.10
2017-10-27T18:11:35.136Z,11.57
2017-10-27T18:14:03.312Z,15.90
2017-10-27T18:16:32.289Z,16.90
2017-10-27T18:19:00.508Z,11.80
2017-10-27T18:21:29.311Z,18.43
2017-10-27T18:23:58.334Z,10.83
2017-10-27T18:26:26.538Z,9.17
2017-10-27T18:28:55.468Z,10.90
2017-10-27T18:31:23.723Z,8.40
2017-10-27T18:33:51.886Z,7.90
2017-10-27T18:36:20.954Z,13.77
2017-10-27T18:38:49.219Z,6.17
2017-10-27T18:41:17.411Z,10.97
2017-10-27T18:43:46.415Z,17.07
2017-10-27T18:46:15.339Z,10.23
2017-10-27T18:48:43.585Z,8.67
2017-10-27T18:51:11.757Z,6.17
2017-10-27T18:56:16.046Z,9.03
2017-10-27T18:58:44.210Z,17.10
2017-10-27T19:01:12.408Z,7.00
2017-10-27T19:03:40.586Z,8.07
2017-10-27T19:06:08.871Z,7.87
2017-10-27T19:08:37.796Z,9.20
2017-10-27T19:11:05.994Z,9.60
2017-10-27T19:13:34.144Z,8.20
2017-10-27T19:16:02.363Z,9.47
2017-10-27T19:18:30.503Z,5.03
2017-10-27T19:20:58.763Z,7.03
2017-10-27T19:23:26.949Z,8.67
2017-10-27T19:25:55.199Z,11.13
2017-10-27T19:28:23.452Z,9.20
2017-10-27T19:30:52.534Z,6.83
2017-10-27T19:33:22.175Z,10.90
2017-10-27T19:35:50.329Z,8.37
2017-10-27T19:38:18.492Z,7.60
2017-10-27T19:40:46.708Z,12.60
2017-10-27T19:43:14.878Z,11.70
2017-10-27T19:45:43.072Z,9.00
2017-10-27T19:48:11.283Z,7.77
2017-10-27T19:50:39.424Z,9.73
2017-10-27T19:53:08.344Z,10.37
2017-10-27T19:55:36.650Z,22.90
2017-10-27T19:58:05.569Z,19.13
2017-10-27T20:00:33.729Z,19.93
2017-10-27T20:03:01.896Z,15.27
2017-10-27T20:05:30.139Z,17.80
2017-10-27T20:07:59.099Z,14.43
2017-10-27T20:10:27.293Z,17.53
2017-10-27T20:12:55.465Z,11.00
2017-10-27T20:15:25.198Z,10.57
2017-10-27T20:17:53.346Z,12.10
2017-10-27T20:20:22.311Z,14.70
2017-10-27T20:22:50.527Z,8.53
2017-10-27T20:25:20.165Z,17.57
2017-10-27T20:27:48.365Z,19.63
2017-10-27T20:30:16.686Z,15.50
2017-10-27T20:32:45.731Z,15.80
2017-10-27T20:35:13.900Z,13.80
2017-10-27T20:37:42.174Z,18.60
2017-10-27T20:40:10.409Z,14.50
2017-10-27T20:42:39.344Z,13.20
2017-10-27T20:45:07.509Z,29.10
2017-10-27T20:47:35.752Z,14.30
2017-10-27T20:50:04.715Z,13.27
2017-10-27T20:52:32.884Z,11.53
2017-10-27T20:55:01.101Z,13.77
2017-10-27T20:57:29.355Z,11.63
2017-10-27T20:59:58.372Z,16.80
2017-10-27T21:02:26.537Z,12.80
2017-10-27T21:04:54.730Z,17.97
2017-10-27T21:07:22.869Z,21.87
2017-10-27T21:09:51.804Z,20.30
2017-10-27T21:12:19.973Z,16.17
2017-10-27T21:14:48.249Z,22.70
2017-10-27T21:17:16.385Z,18.77
2017-10-27T21:19:44.578Z,19.67
2017-10-27T21:22:12.747Z,16.60
2017-10-27T21:24:41.685Z,19.57
2017-10-27T21:27:09.846Z,16.03
2017-10-27T21:29:38.050Z,15.43
2017-10-27T21:32:06.237Z,17.53
2017-10-27T21:34:34.378Z,18.80
2017-10-27T21:37:02.554Z,17.30
2017-10-27T21:39:30.746Z,11.57
2017-10-27T21:41:58.885Z,15.03
2017-10-27T21:44:27.032Z,15.23
2017-10-27T21:46:55.229Z,10.30
2017-10-27T21:49:23.380Z,12.03
2017-10-27T21:51:51.552Z,14.50
2017-10-27T21:54:20.536Z,9.67
2017-10-27T21:56:49.510Z,12.50
2017-10-27T21:59:17.680Z,14.17
2017-10-27T22:01:45.839Z,13.87
2017-10-27T22:04:13.993Z,8.93
2017-10-27T22:06:42.161Z,13.43
2017-10-27T22:09:10.321Z,10.33
2017-10-27T22:11:38.509Z,9.90
2017-10-27T22:14:06.682Z,11.63
2017-10-27T22:16:34.879Z,11.90
2017-10-27T22:19:03.137Z,13.60
2017-10-27T22:21:31.279Z,11.20
2017-10-27T22:24:00.217Z,11.37
2017-10-27T22:26:28.388Z,13.30
2017-10-27T22:28:56.542Z,12.80
2017-10-27T22:31:25.362Z,9.57
2017-10-27T22:33:53.595Z,18.83
2017-10-27T22:36:21.773Z,12.03
2017-10-27T22:38:49.931Z,13.70
2017-10-27T22:41:18.881Z,12.73
2017-10-27T22:43:47.067Z,11.13
2017-10-27T22:46:15.922Z,12.60
2017-10-27T22:48:44.097Z,15.23
2017-10-27T22:51:12.258Z,12.57
2017-10-27T22:53:40.415Z,20.07
2017-10-27T22:56:08.569Z,13.00
2017-10-27T22:58:36.718Z,15.40
2017-10-27T23:01:04.886Z,15.30
2017-10-27T23:03:33.013Z,13.97
2017-10-27T23:06:01.167Z,15.17
2017-10-27T23:08:29.329Z,9.43
2017-10-27T23:10:57.460Z,11.53
2017-10-27T23:13:26.364Z,11.00
2017-10-27T23:15:54.481Z,13.43
2017-10-27T23:18:22.643Z,21.43
2017-10-27T23:20:51.572Z,10.83
2017-10-27T23:23:19.723Z,9.13
2017-10-27T23:25:48.625Z,14.60
2017-10-27T23:28:16.748Z,11.03
2017-10-27T23:30:44.907Z,18.10
2017-10-27T23:33:13.812Z,14.67
2017-10-27T23:35:42.744Z,14.10
2017-10-27T23:38:10.880Z,12.30
2017-10-27T23:40:39.012Z,18.50
2017-10-27T23:43:07.148Z,14.93
2017-10-27T23:45:36.122Z,22.40
2017-10-27T23:48:05.070Z,10.73
2017-10-27T23:50:33.208Z,12.50
2017-10-27T23:53:01.411Z,12.77
2017-10-27T23:55:29.553Z,14.40
2017-10-27T23:57:58.463Z,11.73
